sensor_id;sensor_type;location;lat;lon;timestamp;temperature;humidity
13856;DHT22;6998;53.608;9.958;2023-05-10T00:02:08;14.40;99.90
13856;DHT22;6998;53.608;9.958;2023-05-10T00:04:36;14.40;99.90
13856;DHT22;6998;53.608;9.958;2023-05-10T00:07:03;14.30;99.90
13856;DHT22;6998;53.608;9.958;2023-05-10T00:09:30;14.30;99.90
13856;DHT22;6998;53.608;9.958;2023-05-10T00:11:59;14.20;99.90
13856;DHT22;6998;53.608;9.958;2023-05-10T00:14:26;14.20;99.90
13856;DHT22;6998;53.608;9.958;2023-05-10T00:16:53;14.20;99.90
13856;DHT22;6998;53.608;9.958;2023-05-10T00:19:19;14.20;99.90
13856;DHT22;6998;53.608;9.958;2023-05-10T00:21:48;14.10;99.90
13856;DHT22;6998;53.608;9.958;2023-05-10T00:24:14;14.10;99.90
13856;DHT22;6998;53.608;9.958;2023-05-10T00:26:41;14.20;99.90
13856;DHT22;6998;53.608;9.958;2023-05-10T00:29:08;14.10;99.90
13856;DHT22;6998;53.608;9.958;2023-05-10T00:31:35;14.20;99.90
13856;DHT22;6998;53.608;9.958;2023-05-10T00:34:02;14.20;99.90
13856;DHT22;6998;53.608;9.958;2023-05-10T00:36:29;14.10;99.90
13856;DHT22;6998;53.608;9.958;2023-05-10T00:38:58;14.00;99.90
13856;DHT22;6998;53.608;9.958;2023-05-10T00:41:24;14.00;99.90
13856;DHT22;6998;53.608;9.958;2023-05-10T00:43:51;13.90;99.90
13856;DHT22;6998;53.608;9.958;2023-05-10T00:46:18;13.90;99.90
13856;DHT22;6998;53.608;9.958;2023-05-10T00:48:45;13.90;99.90
13856;DHT22;6998;53.608;9.958;2023-05-10T00:51:12;13.80;99.90
13856;DHT22;6998;53.608;9.958;2023-05-10T00:53:40;13.80;99.90
13856;DHT22;6998;53.608;9.958;2023-05-10T00:56:08;13.70;99.90
13856;DHT22;6998;53.608;9.958;2023-05-10T00:58:36;13.70;99.90
13856;DHT22;6998;53.608;9.958;2023-05-10T01:01:03;13.60;99.90
13856;DHT22;6998;53.608;9.958;2023-05-10T01:03:33;13.60;99.90
13856;DHT22;6998;53.608;9.958;2023-05-10T01:06:00;13.60;99.90
13856;DHT22;6998;53.608;9.958;2023-05-10T01:08:27;13.60;99.90
13856;DHT22;6998;53.608;9.958;2023-05-10T01:10:54;13.60;99.90
13856;DHT22;6998;53.608;9.958;2023-05-10T01:13:30;13.50;99.90
13856;DHT22;6998;53.608;9.958;2023-05-10T01:15:58;13.50;99.90
13856;DHT22;6998;53.608;9.958;2023-05-10T01:18:26;13.40;99.90
13856;DHT22;6998;53.608;9.958;2023-05-10T01:21:02;13.40;99.90
13856;DHT22;6998;53.608;9.958;2023-05-10T01:23:37;13.30;99.90
13856;DHT22;6998;53.608;9.958;2023-05-10T01:29:46;13.20;99.90
13856;DHT22;6998;53.608;9.958;2023-05-10T01:32:28;13.20;99.90
13856;DHT22;6998;53.608;9.958;2023-05-10T01:35:00;13.20;99.90
13856;DHT22;6998;53.608;9.958;2023-05-10T01:37:37;13.20;99.90
13856;DHT22;6998;53.608;9.958;2023-05-10T01:40:13;13.20;99.90
13856;DHT22;6998;53.608;9.958;2023-05-10T01:42:49;13.20;99.90
13856;DHT22;6998;53.608;9.958;2023-05-10T01:45:22;13.20;99.90
13856;DHT22;6998;53.608;9.958;2023-05-10T01:48:01;13.20;99.90
13856;DHT22;6998;53.608;9.958;2023-05-10T01:50:31;13.10;99.90
13856;DHT22;6998;53.608;9.958;2023-05-10T01:53:00;13.00;99.90
13856;DHT22;6998;53.608;9.958;2023-05-10T01:55:30;13.00;99.90
13856;DHT22;6998;53.608;9.958;2023-05-10T01:58:02;12.90;99.90
13856;DHT22;6998;53.608;9.958;2023-05-10T02:00:32;13.00;99.90
13856;DHT22;6998;53.608;9.958;2023-05-10T02:03:04;12.90;99.90
13856;DHT22;6998;53.608;9.958;2023-05-10T02:05:33;12.90;99.90
13856;DHT22;6998;53.608;9.958;2023-05-10T02:08:01;12.90;99.90
13856;DHT22;6998;53.608;9.958;2023-05-10T02:10:28;12.80;99.90
13856;DHT22;6998;53.608;9.958;2023-05-10T02:12:58;12.80;99.90
13856;DHT22;6998;53.608;9.958;2023-05-10T02:15:26;12.80;99.90
13856;DHT22;6998;53.608;9.958;2023-05-10T02:17:55;12.70;99.90
13856;DHT22;6998;53.608;9.958;2023-05-10T02:20:25;12.80;99.90
13856;DHT22;6998;53.608;9.958;2023-05-10T02:22:55;12.70;99.90
13856;DHT22;6998;53.608;9.958;2023-05-10T02:25:23;12.60;99.90
13856;DHT22;6998;53.608;9.958;2023-05-10T02:27:52;12.50;99.90
13856;DHT22;6998;53.608;9.958;2023-05-10T02:30:22;12.50;99.90
13856;DHT22;6998;53.608;9.958;2023-05-10T02:32:49;12.50;99.90
13856;DHT22;6998;53.608;9.958;2023-05-10T02:35:17;12.50;99.90
13856;DHT22;6998;53.608;9.958;2023-05-10T02:37:46;12.50;99.90
13856;DHT22;6998;53.608;9.958;2023-05-10T02:40:15;12.40;99.90
13856;DHT22;6998;53.608;9.958;2023-05-10T02:42:44;12.40;99.90
13856;DHT22;6998;53.608;9.958;2023-05-10T02:45:18;12.30;99.90
13856;DHT22;6998;53.608;9.958;2023-05-10T02:47:46;12.20;99.90
13856;DHT22;6998;53.608;9.958;2023-05-10T02:50:13;12.20;99.90
13856;DHT22;6998;53.608;9.958;2023-05-10T02:52:42;12.20;99.90
13856;DHT22;6998;53.608;9.958;2023-05-10T02:55:15;12.20;99.90
13856;DHT22;6998;53.608;9.958;2023-05-10T02:57:48;12.10;99.90
13856;DHT22;6998;53.608;9.958;2023-05-10T03:00:16;12.00;99.90
13856;DHT22;6998;53.608;9.958;2023-05-10T03:02:43;12.10;99.90
13856;DHT22;6998;53.608;9.958;2023-05-10T03:05:10;12.10;99.90
13856;DHT22;6998;53.608;9.958;2023-05-10T03:07:37;12.10;99.90
13856;DHT22;6998;53.608;9.958;2023-05-10T03:10:05;12.10;99.90
13856;DHT22;6998;53.608;9.958;2023-05-10T03:12:46;12.00;99.90
13856;DHT22;6998;53.608;9.958;2023-05-10T03:15:22;12.00;99.90
13856;DHT22;6998;53.608;9.958;2023-05-10T03:17:55;12.00;99.90
13856;DHT22;6998;53.608;9.958;2023-05-10T03:20:26;12.10;99.90
13856;DHT22;6998;53.608;9.958;2023-05-10T03:23:02;12.10;99.90
13856;DHT22;6998;53.608;9.958;2023-05-10T03:25:30;12.10;99.90
13856;DHT22;6998;53.608;9.958;2023-05-10T03:28:01;12.20;99.90
13856;DHT22;6998;53.608;9.958;2023-05-10T03:30:29;12.10;99.90
13856;DHT22;6998;53.608;9.958;2023-05-10T03:32:57;12.10;99.90
13856;DHT22;6998;53.608;9.958;2023-05-10T03:35:23;12.10;99.90
13856;DHT22;6998;53.608;9.958;2023-05-10T03:37:50;12.10;99.90
13856;DHT22;6998;53.608;9.958;2023-05-10T03:40:17;12.10;99.90
13856;DHT22;6998;53.608;9.958;2023-05-10T03:42:44;12.10;99.90
13856;DHT22;6998;53.608;9.958;2023-05-10T03:45:12;12.10;99.90
13856;DHT22;6998;53.608;9.958;2023-05-10T03:47:39;12.10;99.90
13856;DHT22;6998;53.608;9.958;2023-05-10T03:50:07;12.10;99.90
13856;DHT22;6998;53.608;9.958;2023-05-10T03:52:34;12.10;99.90
13856;DHT22;6998;53.608;9.958;2023-05-10T03:55:00;12.20;99.90
13856;DHT22;6998;53.608;9.958;2023-05-10T03:57:28;12.10;99.90
13856;DHT22;6998;53.608;9.958;2023-05-10T03:59:55;12.10;99.90
13856;DHT22;6998;53.608;9.958;2023-05-10T04:02:24;12.10;99.90
13856;DHT22;6998;53.608;9.958;2023-05-10T04:04:50;12.10;99.90
13856;DHT22;6998;53.608;9.958;2023-05-10T04:07:17;12.10;99.90
13856;DHT22;6998;53.608;9.958;2023-05-10T04:09:44;12.20;99.90
13856;DHT22;6998;53.608;9.958;2023-05-10T04:12:11;12.30;99.90
13856;DHT22;6998;53.608;9.958;2023-05-10T04:14:37;12.30;99.90
13856;DHT22;6998;53.608;9.958;2023-05-10T04:17:04;12.40;99.90
13856;DHT22;6998;53.608;9.958;2023-05-10T04:19:33;12.40;99.90
13856;DHT22;6998;53.608;9.958;2023-05-10T04:22:02;12.40;99.90
13856;DHT22;6998;53.608;9.958;2023-05-10T04:24:29;12.40;99.90
13856;DHT22;6998;53.608;9.958;2023-05-10T04:26:56;12.50;99.90
13856;DHT22;6998;53.608;9.958;2023-05-10T04:29:22;12.50;99.90
13856;DHT22;6998;53.608;9.958;2023-05-10T04:31:49;12.60;99.90
13856;DHT22;6998;53.608;9.958;2023-05-10T04:34:16;12.60;99.90
13856;DHT22;6998;53.608;9.958;2023-05-10T04:36:44;12.60;99.90
13856;DHT22;6998;53.608;9.958;2023-05-10T04:39:11;12.60;99.90
13856;DHT22;6998;53.608;9.958;2023-05-10T04:41:39;12.70;99.90
13856;DHT22;6998;53.608;9.958;2023-05-10T04:44:06;12.80;99.90
13856;DHT22;6998;53.608;9.958;2023-05-10T04:46:32;13.20;99.90
13856;DHT22;6998;53.608;9.958;2023-05-10T04:48:59;12.80;99.90
13856;DHT22;6998;53.608;9.958;2023-05-10T04:51:26;12.80;99.90
13856;DHT22;6998;53.608;9.958;2023-05-10T04:53:54;12.80;99.90
13856;DHT22;6998;53.608;9.958;2023-05-10T04:56:21;12.80;99.90
13856;DHT22;6998;53.608;9.958;2023-05-10T04:58:48;12.90;99.90
13856;DHT22;6998;53.608;9.958;2023-05-10T05:01:15;13.00;99.90
13856;DHT22;6998;53.608;9.958;2023-05-10T05:03:42;13.00;99.90
13856;DHT22;6998;53.608;9.958;2023-05-10T05:06:09;13.10;99.90
13856;DHT22;6998;53.608;9.958;2023-05-10T05:08:36;13.40;99.90
13856;DHT22;6998;53.608;9.958;2023-05-10T05:11:04;13.20;99.90
13856;DHT22;6998;53.608;9.958;2023-05-10T05:13:31;13.40;99.90
13856;DHT22;6998;53.608;9.958;2023-05-10T05:16:00;13.40;99.90
13856;DHT22;6998;53.608;9.958;2023-05-10T05:18:27;13.50;99.90
13856;DHT22;6998;53.608;9.958;2023-05-10T05:20:54;13.70;99.90
13856;DHT22;6998;53.608;9.958;2023-05-10T05:23:21;13.60;99.90
13856;DHT22;6998;53.608;9.958;2023-05-10T05:25:51;13.70;99.90
13856;DHT22;6998;53.608;9.958;2023-05-10T05:28:20;13.70;99.90
13856;DHT22;6998;53.608;9.958;2023-05-10T05:30:47;13.70;99.90
13856;DHT22;6998;53.608;9.958;2023-05-10T05:33:13;13.80;99.90
13856;DHT22;6998;53.608;9.958;2023-05-10T05:35:41;13.90;99.90
13856;DHT22;6998;53.608;9.958;2023-05-10T05:38:15;14.00;99.90
13856;DHT22;6998;53.608;9.958;2023-05-10T05:40:42;14.20;99.90
13856;DHT22;6998;53.608;9.958;2023-05-10T05:43:10;14.30;99.90
13856;DHT22;6998;53.608;9.958;2023-05-10T05:45:39;14.40;99.90
13856;DHT22;6998;53.608;9.958;2023-05-10T05:48:18;14.50;99.90
13856;DHT22;6998;53.608;9.958;2023-05-10T05:50:45;14.50;99.90
13856;DHT22;6998;53.608;9.958;2023-05-10T05:53:14;14.70;99.90
13856;DHT22;6998;53.608;9.958;2023-05-10T05:55:51;14.70;99.90
13856;DHT22;6998;53.608;9.958;2023-05-10T05:58:18;14.80;99.90
13856;DHT22;6998;53.608;9.958;2023-05-10T06:00:46;14.80;99.90
13856;DHT22;6998;53.608;9.958;2023-05-10T06:03:13;14.80;99.90
13856;DHT22;6998;53.608;9.958;2023-05-10T06:05:41;14.90;99.90
13856;DHT22;6998;53.608;9.958;2023-05-10T06:08:08;14.90;99.90
13856;DHT22;6998;53.608;9.958;2023-05-10T06:10:35;14.90;99.90
13856;DHT22;6998;53.608;9.958;2023-05-10T06:13:02;15.00;99.90
13856;DHT22;6998;53.608;9.958;2023-05-10T06:15:29;15.10;99.90
13856;DHT22;6998;53.608;9.958;2023-05-10T06:17:57;15.20;99.90
13856;DHT22;6998;53.608;9.958;2023-05-10T06:20:25;15.30;99.90
13856;DHT22;6998;53.608;9.958;2023-05-10T06:22:56;15.50;99.90
13856;DHT22;6998;53.608;9.958;2023-05-10T06:25:23;15.40;99.90
13856;DHT22;6998;53.608;9.958;2023-05-10T06:27:50;15.50;99.90
13856;DHT22;6998;53.608;9.958;2023-05-10T06:30:22;15.50;99.90
13856;DHT22;6998;53.608;9.958;2023-05-10T06:32:53;15.80;99.90
13856;DHT22;6998;53.608;9.958;2023-05-10T06:35:21;15.80;99.90
13856;DHT22;6998;53.608;9.958;2023-05-10T06:37:48;15.80;99.90
13856;DHT22;6998;53.608;9.958;2023-05-10T06:40:17;15.70;99.90
13856;DHT22;6998;53.608;9.958;2023-05-10T06:42:44;15.70;99.90
13856;DHT22;6998;53.608;9.958;2023-05-10T06:45:11;15.80;99.90
13856;DHT22;6998;53.608;9.958;2023-05-10T06:47:38;15.90;99.90
13856;DHT22;6998;53.608;9.958;2023-05-10T06:50:06;16.00;99.90
13856;DHT22;6998;53.608;9.958;2023-05-10T06:52:34;16.10;99.90
13856;DHT22;6998;53.608;9.958;2023-05-10T06:55:01;16.00;99.90
13856;DHT22;6998;53.608;9.958;2023-05-10T06:57:28;16.00;99.90
13856;DHT22;6998;53.608;9.958;2023-05-10T06:59:55;16.20;99.90
13856;DHT22;6998;53.608;9.958;2023-05-10T07:02:22;16.30;99.90
13856;DHT22;6998;53.608;9.958;2023-05-10T07:04:49;16.50;99.90
13856;DHT22;6998;53.608;9.958;2023-05-10T07:07:17;16.60;99.90
13856;DHT22;6998;53.608;9.958;2023-05-10T07:09:45;16.70;99.90
13856;DHT22;6998;53.608;9.958;2023-05-10T07:12:13;17.00;99.90
13856;DHT22;6998;53.608;9.958;2023-05-10T07:14:41;16.90;99.90
13856;DHT22;6998;53.608;9.958;2023-05-10T07:17:08;17.10;99.90
13856;DHT22;6998;53.608;9.958;2023-05-10T07:19:35;17.20;99.90
13856;DHT22;6998;53.608;9.958;2023-05-10T07:22:02;17.10;99.90
13856;DHT22;6998;53.608;9.958;2023-05-10T07:24:29;17.00;99.90
13856;DHT22;6998;53.608;9.958;2023-05-10T07:26:58;17.10;99.90
13856;DHT22;6998;53.608;9.958;2023-05-10T07:29:25;17.30;99.90
13856;DHT22;6998;53.608;9.958;2023-05-10T07:31:52;17.40;99.90
13856;DHT22;6998;53.608;9.958;2023-05-10T07:34:18;17.50;99.90
13856;DHT22;6998;53.608;9.958;2023-05-10T07:36:45;17.70;99.90
13856;DHT22;6998;53.608;9.958;2023-05-10T07:39:12;17.50;99.90
13856;DHT22;6998;53.608;9.958;2023-05-10T07:41:39;17.40;99.90
13856;DHT22;6998;53.608;9.958;2023-05-10T07:44:07;17.40;99.90
13856;DHT22;6998;53.608;9.958;2023-05-10T07:46:34;17.50;99.90
13856;DHT22;6998;53.608;9.958;2023-05-10T07:49:01;17.50;99.90
13856;DHT22;6998;53.608;9.958;2023-05-10T07:51:28;17.60;99.90
13856;DHT22;6998;53.608;9.958;2023-05-10T07:53:54;17.60;99.90
13856;DHT22;6998;53.608;9.958;2023-05-10T07:56:25;17.80;99.90
13856;DHT22;6998;53.608;9.958;2023-05-10T07:58:55;17.90;99.90
13856;DHT22;6998;53.608;9.958;2023-05-10T08:01:24;18.30;99.90
13856;DHT22;6998;53.608;9.958;2023-05-10T08:03:51;18.50;99.90
13856;DHT22;6998;53.608;9.958;2023-05-10T08:06:19;18.70;99.90
13856;DHT22;6998;53.608;9.958;2023-05-10T08:08:47;18.90;99.90
13856;DHT22;6998;53.608;9.958;2023-05-10T08:11:15;18.80;99.90
13856;DHT22;6998;53.608;9.958;2023-05-10T08:13:42;18.80;99.90
13856;DHT22;6998;53.608;9.958;2023-05-10T08:16:09;18.90;99.90
13856;DHT22;6998;53.608;9.958;2023-05-10T08:18:40;18.90;99.90
13856;DHT22;6998;53.608;9.958;2023-05-10T08:21:08;18.80;99.90
13856;DHT22;6998;53.608;9.958;2023-05-10T08:23:36;18.90;99.90
13856;DHT22;6998;53.608;9.958;2023-05-10T08:26:03;18.90;99.90
13856;DHT22;6998;53.608;9.958;2023-05-10T08:28:30;18.90;99.90
13856;DHT22;6998;53.608;9.958;2023-05-10T08:30:57;19.10;99.90
13856;DHT22;6998;53.608;9.958;2023-05-10T08:33:24;19.20;99.90
13856;DHT22;6998;53.608;9.958;2023-05-10T08:35:52;19.40;99.90
13856;DHT22;6998;53.608;9.958;2023-05-10T08:38:20;19.30;99.90
13856;DHT22;6998;53.608;9.958;2023-05-10T08:40:48;19.20;99.90
13856;DHT22;6998;53.608;9.958;2023-05-10T08:43:16;19.30;99.90
13856;DHT22;6998;53.608;9.958;2023-05-10T08:45:44;19.20;99.90
13856;DHT22;6998;53.608;9.958;2023-05-10T08:48:12;19.10;99.90
13856;DHT22;6998;53.608;9.958;2023-05-10T08:50:41;19.10;99.90
13856;DHT22;6998;53.608;9.958;2023-05-10T08:53:11;19.10;99.90
13856;DHT22;6998;53.608;9.958;2023-05-10T08:55:40;19.00;99.90
13856;DHT22;6998;53.608;9.958;2023-05-10T08:58:09;19.20;99.90
13856;DHT22;6998;53.608;9.958;2023-05-10T09:00:36;19.20;99.90
13856;DHT22;6998;53.608;9.958;2023-05-10T09:03:04;19.40;99.90
13856;DHT22;6998;53.608;9.958;2023-05-10T09:05:31;19.50;99.90
13856;DHT22;6998;53.608;9.958;2023-05-10T09:07:58;19.80;99.90
13856;DHT22;6998;53.608;9.958;2023-05-10T09:10:27;20.00;99.90
13856;DHT22;6998;53.608;9.958;2023-05-10T09:12:56;20.10;99.90
13856;DHT22;6998;53.608;9.958;2023-05-10T09:15:23;20.10;99.90
13856;DHT22;6998;53.608;9.958;2023-05-10T09:17:50;20.30;99.90
13856;DHT22;6998;53.608;9.958;2023-05-10T09:20:17;20.30;99.90
13856;DHT22;6998;53.608;9.958;2023-05-10T09:22:43;20.40;99.90
13856;DHT22;6998;53.608;9.958;2023-05-10T09:25:13;20.40;99.90
13856;DHT22;6998;53.608;9.958;2023-05-10T09:27:47;20.30;99.90
13856;DHT22;6998;53.608;9.958;2023-05-10T09:30:19;20.20;99.90
13856;DHT22;6998;53.608;9.958;2023-05-10T09:32:55;20.20;99.90
13856;DHT22;6998;53.608;9.958;2023-05-10T09:35:28;20.10;99.90
13856;DHT22;6998;53.608;9.958;2023-05-10T09:37:58;19.80;99.90
13856;DHT22;6998;53.608;9.958;2023-05-10T09:40:28;19.40;99.90
13856;DHT22;6998;53.608;9.958;2023-05-10T09:43:01;19.20;99.90
13856;DHT22;6998;53.608;9.958;2023-05-10T09:45:29;19.10;99.90
13856;DHT22;6998;53.608;9.958;2023-05-10T09:48:00;19.00;99.90
13856;DHT22;6998;53.608;9.958;2023-05-10T09:50:29;18.70;99.90
13856;DHT22;6998;53.608;9.958;2023-05-10T09:52:58;18.60;99.90
13856;DHT22;6998;53.608;9.958;2023-05-10T09:55:38;18.50;99.90
13856;DHT22;6998;53.608;9.958;2023-05-10T09:58:12;18.40;99.90
13856;DHT22;6998;53.608;9.958;2023-05-10T10:00:41;18.40;99.90
13856;DHT22;6998;53.608;9.958;2023-05-10T10:03:13;18.20;99.90
13856;DHT22;6998;53.608;9.958;2023-05-10T10:05:41;18.10;99.90
13856;DHT22;6998;53.608;9.958;2023-05-10T10:08:08;17.80;99.90
13856;DHT22;6998;53.608;9.958;2023-05-10T10:10:36;17.90;99.90
13856;DHT22;6998;53.608;9.958;2023-05-10T10:13:04;17.80;99.90
13856;DHT22;6998;53.608;9.958;2023-05-10T10:15:32;17.40;99.90
13856;DHT22;6998;53.608;9.958;2023-05-10T10:18:00;17.00;99.90
13856;DHT22;6998;53.608;9.958;2023-05-10T10:20:29;16.80;99.90
13856;DHT22;6998;53.608;9.958;2023-05-10T10:22:56;16.60;99.90
13856;DHT22;6998;53.608;9.958;2023-05-10T10:25:23;16.50;99.90
13856;DHT22;6998;53.608;9.958;2023-05-10T10:28:06;16.50;99.90
13856;DHT22;6998;53.608;9.958;2023-05-10T10:30:40;16.50;99.90
13856;DHT22;6998;53.608;9.958;2023-05-10T10:33:29;16.60;99.90
13856;DHT22;6998;53.608;9.958;2023-05-10T10:35:58;16.60;99.90
13856;DHT22;6998;53.608;9.958;2023-05-10T10:38:30;16.60;99.90
13856;DHT22;6998;53.608;9.958;2023-05-10T10:41:08;16.70;99.90
13856;DHT22;6998;53.608;9.958;2023-05-10T10:43:35;16.80;99.90
13856;DHT22;6998;53.608;9.958;2023-05-10T10:46:21;16.80;99.90
13856;DHT22;6998;53.608;9.958;2023-05-10T10:48:50;16.80;99.90
13856;DHT22;6998;53.608;9.958;2023-05-10T10:51:17;16.90;99.90
13856;DHT22;6998;53.608;9.958;2023-05-10T10:53:44;17.00;99.90
13856;DHT22;6998;53.608;9.958;2023-05-10T10:56:14;16.80;99.90
13856;DHT22;6998;53.608;9.958;2023-05-10T10:58:42;17.00;99.90
13856;DHT22;6998;53.608;9.958;2023-05-10T11:01:16;17.00;99.90
13856;DHT22;6998;53.608;9.958;2023-05-10T11:04:18;17.10;99.90
13856;DHT22;6998;53.608;9.958;2023-05-10T11:06:47;17.30;99.90
13856;DHT22;6998;53.608;9.958;2023-05-10T11:09:14;17.50;99.90
13856;DHT22;6998;53.608;9.958;2023-05-10T11:11:52;17.60;99.90
13856;DHT22;6998;53.608;9.958;2023-05-10T11:14:21;17.80;99.90
13856;DHT22;6998;53.608;9.958;2023-05-10T11:16:48;17.80;99.90
13856;DHT22;6998;53.608;9.958;2023-05-10T11:19:17;17.70;99.90
13856;DHT22;6998;53.608;9.958;2023-05-10T11:21:46;17.70;99.90
13856;DHT22;6998;53.608;9.958;2023-05-10T11:24:14;17.70;99.90
13856;DHT22;6998;53.608;9.958;2023-05-10T11:26:42;17.60;99.90
13856;DHT22;6998;53.608;9.958;2023-05-10T11:29:09;17.40;99.90
13856;DHT22;6998;53.608;9.958;2023-05-10T11:31:42;17.40;99.90
13856;DHT22;6998;53.608;9.958;2023-05-10T11:34:10;17.40;99.90
13856;DHT22;6998;53.608;9.958;2023-05-10T11:36:38;17.40;99.90
13856;DHT22;6998;53.608;9.958;2023-05-10T11:39:05;17.40;99.90
13856;DHT22;6998;53.608;9.958;2023-05-10T11:41:32;17.50;99.90
13856;DHT22;6998;53.608;9.958;2023-05-10T11:43:59;17.60;99.90
13856;DHT22;6998;53.608;9.958;2023-05-10T11:46:27;17.70;99.90
13856;DHT22;6998;53.608;9.958;2023-05-10T11:48:57;17.40;99.90
13856;DHT22;6998;53.608;9.958;2023-05-10T11:51:26;17.20;99.90
13856;DHT22;6998;53.608;9.958;2023-05-10T11:53:55;17.20;99.90
13856;DHT22;6998;53.608;9.958;2023-05-10T11:56:22;17.20;99.90
13856;DHT22;6998;53.608;9.958;2023-05-10T11:58:55;17.40;99.90
13856;DHT22;6998;53.608;9.958;2023-05-10T12:01:27;17.30;99.90
13856;DHT22;6998;53.608;9.958;2023-05-10T12:03:55;17.30;99.90
13856;DHT22;6998;53.608;9.958;2023-05-10T12:06:26;17.10;99.90
13856;DHT22;6998;53.608;9.958;2023-05-10T12:08:55;16.90;99.90
13856;DHT22;6998;53.608;9.958;2023-05-10T12:11:25;16.90;99.90
13856;DHT22;6998;53.608;9.958;2023-05-10T12:13:53;16.70;99.90
13856;DHT22;6998;53.608;9.958;2023-05-10T12:16:21;16.80;99.90
13856;DHT22;6998;53.608;9.958;2023-05-10T12:18:48;17.00;99.90
13856;DHT22;6998;53.608;9.958;2023-05-10T12:21:16;16.80;99.90
13856;DHT22;6998;53.608;9.958;2023-05-10T12:23:45;16.70;99.90
13856;DHT22;6998;53.608;9.958;2023-05-10T12:26:14;16.80;99.90
13856;DHT22;6998;53.608;9.958;2023-05-10T12:28:41;16.60;99.90
13856;DHT22;6998;53.608;9.958;2023-05-10T12:31:08;16.80;99.90
13856;DHT22;6998;53.608;9.958;2023-05-10T12:33:36;17.10;99.90
13856;DHT22;6998;53.608;9.958;2023-05-10T12:36:04;17.40;99.90
13856;DHT22;6998;53.608;9.958;2023-05-10T12:38:33;17.70;99.90
13856;DHT22;6998;53.608;9.958;2023-05-10T12:41:01;17.90;99.90
13856;DHT22;6998;53.608;9.958;2023-05-10T12:43:31;18.10;99.90
13856;DHT22;6998;53.608;9.958;2023-05-10T12:45:58;18.20;99.90
13856;DHT22;6998;53.608;9.958;2023-05-10T12:48:25;18.30;99.90
13856;DHT22;6998;53.608;9.958;2023-05-10T12:50:59;18.40;99.90
13856;DHT22;6998;53.608;9.958;2023-05-10T12:53:31;18.40;99.90
13856;DHT22;6998;53.608;9.958;2023-05-10T12:56:14;18.40;99.90
13856;DHT22;6998;53.608;9.958;2023-05-10T13:02:11;18.50;99.90
13856;DHT22;6998;53.608;9.958;2023-05-10T13:04:44;18.70;99.90
13856;DHT22;6998;53.608;9.958;2023-05-10T13:07:12;18.80;99.90
13856;DHT22;6998;53.608;9.958;2023-05-10T13:09:39;18.90;99.90
13856;DHT22;6998;53.608;9.958;2023-05-10T13:12:18;18.50;99.90
13856;DHT22;6998;53.608;9.958;2023-05-10T13:14:53;18.50;99.90
13856;DHT22;6998;53.608;9.958;2023-05-10T13:17:35;18.60;99.90
13856;DHT22;6998;53.608;9.958;2023-05-10T13:20:18;18.70;99.90
13856;DHT22;6998;53.608;9.958;2023-05-10T13:23:26;18.80;99.90
13856;DHT22;6998;53.608;9.958;2023-05-10T13:25:53;18.90;99.90
13856;DHT22;6998;53.608;9.958;2023-05-10T13:28:23;19.10;99.90
13856;DHT22;6998;53.608;9.958;2023-05-10T13:30:51;19.10;99.90
13856;DHT22;6998;53.608;9.958;2023-05-10T13:33:20;19.10;99.90
13856;DHT22;6998;53.608;9.958;2023-05-10T13:35:50;19.10;99.90
13856;DHT22;6998;53.608;9.958;2023-05-10T13:38:26;18.90;99.90
13856;DHT22;6998;53.608;9.958;2023-05-10T13:41:10;18.70;99.90
13856;DHT22;6998;53.608;9.958;2023-05-10T13:43:40;18.90;99.90
13856;DHT22;6998;53.608;9.958;2023-05-10T13:46:07;18.80;99.90
13856;DHT22;6998;53.608;9.958;2023-05-10T13:48:43;18.80;99.90
13856;DHT22;6998;53.608;9.958;2023-05-10T13:51:11;18.40;99.90
13856;DHT22;6998;53.608;9.958;2023-05-10T13:53:41;18.40;99.90
13856;DHT22;6998;53.608;9.958;2023-05-10T13:56:08;18.40;99.90
13856;DHT22;6998;53.608;9.958;2023-05-10T13:58:37;18.50;99.90
13856;DHT22;6998;53.608;9.958;2023-05-10T14:01:04;18.60;99.90
13856;DHT22;6998;53.608;9.958;2023-05-10T14:03:32;18.70;99.90
13856;DHT22;6998;53.608;9.958;2023-05-10T14:06:00;18.90;99.90
13856;DHT22;6998;53.608;9.958;2023-05-10T14:08:27;18.60;99.90
13856;DHT22;6998;53.608;9.958;2023-05-10T14:10:54;18.70;99.90
13856;DHT22;6998;53.608;9.958;2023-05-10T14:13:23;18.90;99.90
13856;DHT22;6998;53.608;9.958;2023-05-10T14:15:50;19.10;99.90
13856;DHT22;6998;53.608;9.958;2023-05-10T14:18:17;19.10;99.90
13856;DHT22;6998;53.608;9.958;2023-05-10T14:20:44;19.40;99.90
13856;DHT22;6998;53.608;9.958;2023-05-10T14:23:12;19.30;99.90
13856;DHT22;6998;53.608;9.958;2023-05-10T14:25:40;19.40;99.90
13856;DHT22;6998;53.608;9.958;2023-05-10T14:28:06;19.40;99.90
13856;DHT22;6998;53.608;9.958;2023-05-10T14:30:33;19.30;99.90
13856;DHT22;6998;53.608;9.958;2023-05-10T14:33:01;19.20;99.90
13856;DHT22;6998;53.608;9.958;2023-05-10T14:35:28;19.10;99.90
13856;DHT22;6998;53.608;9.958;2023-05-10T14:37:56;19.10;99.90
13856;DHT22;6998;53.608;9.958;2023-05-10T14:40:24;19.20;99.90
13856;DHT22;6998;53.608;9.958;2023-05-10T14:42:51;19.40;99.90
13856;DHT22;6998;53.608;9.958;2023-05-10T14:45:19;19.50;99.90
13856;DHT22;6998;53.608;9.958;2023-05-10T14:47:46;19.30;99.90
13856;DHT22;6998;53.608;9.958;2023-05-10T14:50:13;19.10;99.90
13856;DHT22;6998;53.608;9.958;2023-05-10T14:52:40;19.10;99.90
13856;DHT22;6998;53.608;9.958;2023-05-10T14:55:07;19.20;99.90
13856;DHT22;6998;53.608;9.958;2023-05-10T14:57:36;19.10;99.90
13856;DHT22;6998;53.608;9.958;2023-05-10T15:00:04;19.00;99.90
13856;DHT22;6998;53.608;9.958;2023-05-10T15:02:31;19.10;99.90
13856;DHT22;6998;53.608;9.958;2023-05-10T15:04:58;19.10;99.90
13856;DHT22;6998;53.608;9.958;2023-05-10T15:07:24;19.10;99.90
13856;DHT22;6998;53.608;9.958;2023-05-10T15:09:51;19.20;99.90
13856;DHT22;6998;53.608;9.958;2023-05-10T15:12:18;19.30;99.90
13856;DHT22;6998;53.608;9.958;2023-05-10T15:14:46;19.30;99.90
13856;DHT22;6998;53.608;9.958;2023-05-10T15:17:13;19.30;99.90
13856;DHT22;6998;53.608;9.958;2023-05-10T15:19:39;19.40;99.90
13856;DHT22;6998;53.608;9.958;2023-05-10T15:22:06;19.50;99.90
13856;DHT22;6998;53.608;9.958;2023-05-10T15:24:33;19.60;99.90
13856;DHT22;6998;53.608;9.958;2023-05-10T15:27:00;19.70;99.90
13856;DHT22;6998;53.608;9.958;2023-05-10T15:29:27;19.80;99.90
13856;DHT22;6998;53.608;9.958;2023-05-10T15:31:56;19.90;99.90
13856;DHT22;6998;53.608;9.958;2023-05-10T15:34:23;19.90;99.90
13856;DHT22;6998;53.608;9.958;2023-05-10T15:36:49;19.90;99.90
13856;DHT22;6998;53.608;9.958;2023-05-10T15:39:16;19.70;99.90
13856;DHT22;6998;53.608;9.958;2023-05-10T15:41:43;19.60;99.90
13856;DHT22;6998;53.608;9.958;2023-05-10T15:44:10;19.40;99.90
13856;DHT22;6998;53.608;9.958;2023-05-10T15:46:37;19.40;99.90
13856;DHT22;6998;53.608;9.958;2023-05-10T15:49:05;19.10;99.90
13856;DHT22;6998;53.608;9.958;2023-05-10T15:51:32;19.00;99.90
13856;DHT22;6998;53.608;9.958;2023-05-10T15:53:59;18.90;99.90
13856;DHT22;6998;53.608;9.958;2023-05-10T15:56:27;18.90;99.90
13856;DHT22;6998;53.608;9.958;2023-05-10T15:58:53;18.80;99.90
13856;DHT22;6998;53.608;9.958;2023-05-10T16:01:20;18.50;99.90
13856;DHT22;6998;53.608;9.958;2023-05-10T16:03:47;18.30;99.90